Time;durP1;ratioP1;P1;durP2;ratioP2;P2;SDS_P1;SDS_P2;PMS_P1;PMS_P2;Temp;Humidity;BMP_temperature;BMP_pressure;BME280_temperature;BME280_humidity;BME280_pressure;Samples;Min_cycle;Max_cycle;Signal;HPM_P1;HPM_P2
2023/02/26 00:00:28;;;;;;;;;;;;;;;;;;6237347;23;20102;-62
2023/02/26 00:02:55;;;;;;;2.55;1.10;;;;;;;;;;6236114;23;20342;-54
2023/02/26 00:05:29;;;;;;;3.33;1.10;;;;;;;;;;6233282;23;20020;-52
2023/02/26 00:07:57;;;;;;;4.65;1.27;;;;;;;;;;6233533;23;20087;-55
2023/02/26 00:10:24;;;;;;;7.75;1.48;;;;;;;;;;6236830;23;20127;-50
2023/02/26 00:12:58;;;;;;;3.78;1.20;;;;;;;;;;6234915;23;20391;-53
2023/02/26 00:15:26;;;;;;;4.72;1.30;;;;;;;;;;6236226;23;20024;-63
2023/02/26 00:18:13;;;;;;;1.45;0.80;;;;;;;;;;6232953;23;20020;-62
2023/02/26 00:20:42;;;;;;;2.53;1.20;;;;;;;;;;6233703;23;20116;-62
2023/02/26 00:23:17;;;;;;;2.70;1.02;;;;;;;;;;6234224;23;20107;-62
2023/02/26 00:25:45;;;;;;;1.88;1.10;;;;;;;;;;6232701;23;20051;-62
2023/02/26 00:28:12;;;;;;;4.78;1.30;;;;;;;;;;6233990;23;20024;-62
2023/02/26 00:30:46;;;;;;;3.85;0.90;;;;;;;;;;6234829;23;20028;-63
2023/02/26 00:33:13;;;;;;;;;;;;;;;;;;6238391;23;20099;-63
2023/02/26 00:35:54;;;;;;;5.38;1.17;;;;;;;;;;6233334;23;19915;-64
2023/02/26 00:38:21;;;;;;;5.18;1.52;;;;;;;;;;6233428;23;20581;-63
2023/02/26 00:40:55;;;;;;;5.07;1.30;;;;;;;;;;6234014;23;20024;-64
2023/02/26 00:43:25;;;;;;;1.90;1.17;;;;;;;;;;6235132;23;20071;-55
2023/02/26 00:46:07;;;;;;;7.00;1.10;;;;;;;;;;6233690;23;20115;-58
2023/02/26 00:48:41;;;;;;;4.32;1.30;;;;;;;;;;6232274;23;20456;-58
2023/02/26 00:51:08;;;;;;;2.85;1.00;;;;;;;;;;6235042;23;20026;-56
2023/02/26 00:53:58;;;;;;;1.42;0.82;;;;;;;;;;6236477;23;20107;-56
2023/02/26 00:56:25;;;;;;;1.35;1.00;;;;;;;;;;6235989;23;20047;-57
2023/02/26 00:58:59;;;;;;;3.42;1.20;;;;;;;;;;6235766;23;20103;-59
2023/02/26 01:01:26;;;;;;;2.78;1.85;;;;;;;;;;6236693;23;20075;-76
2023/02/26 01:03:54;;;;;;;;;;;;;;;;;;6235269;23;20483;-76
2023/02/26 01:06:28;;;;;;;2.72;1.17;;;;;;;;;;6235165;23;19923;-76
2023/02/26 01:09:04;;;;;;;2.90;1.05;;;;;;;;;;6234041;23;20367;-76
2023/02/26 01:11:38;;;;;;;2.42;1.30;;;;;;;;;;6235357;23;20020;-62
2023/02/26 01:14:06;;;;;;;4.68;1.83;;;;;;;;;;6235435;23;20107;-64
2023/02/26 01:16:50;;;;;;;4.70;1.13;;;;;;;;;;6236810;23;20027;-64
2023/02/26 01:19:28;;;;;;;3.55;1.30;;;;;;;;;;6235889;23;20030;-64
2023/02/26 01:22:01;;;;;;;7.10;0.95;;;;;;;;;;6235003;23;20095;-62
2023/02/26 01:24:35;;;;;;;6.28;1.48;;;;;;;;;;6235642;23;20106;-62
2023/02/26 01:27:02;;;;;;;4.60;1.52;;;;;;;;;;6234818;23;20027;-63
2023/02/26 01:29:29;;;;;;;5.82;1.30;;;;;;;;;;6236429;23;20020;-74
2023/02/26 01:32:08;;;;;;;2.45;1.10;;;;;;;;;;6234995;23;20549;-74
2023/02/26 01:34:46;;;;;;;3.97;1.10;;;;;;;;;;6234034;23;20072;-74
2023/02/26 01:37:32;;;;;;;1.65;1.02;;;;;;;;;;6234306;23;20477;-74
2023/02/26 01:40:28;;;;;;;4.72;1.25;;;;;;;;;;6236417;23;20387;-58
2023/02/26 01:43:12;;;;;;;5.15;1.50;;;;;;;;;;6236175;23;20356;-60
2023/02/26 01:45:54;;;;;;;2.20;0.80;;;;;;;;;;6232977;23;20114;-60
2023/02/26 01:48:31;;;;;;;3.60;1.20;;;;;;;;;;6234980;23;20024;-61
2023/02/26 01:51:05;;;;;;;3.55;1.15;;;;;;;;;;6233159;23;20028;-60
2023/02/26 01:53:32;;;;;;;10.15;1.60;;;;;;;;;;6234384;23;20581;-61
2023/02/26 01:56:05;;;;;;;3.20;1.00;;;;;;;;;;6234285;23;20029;-60
2023/02/26 01:58:39;;;;;;;3.13;1.38;;;;;;;;;;6237170;23;20437;-48
2023/02/26 02:01:07;;;;;;;3.95;1.10;;;;;;;;;;6233965;23;20020;-50
2023/02/26 02:03:42;;;;;;;2.10;0.93;;;;;;;;;;6234827;23;20370;-50
2023/02/26 02:06:11;;;;;;;2.85;1.55;;;;;;;;;;6233579;23;20081;-50
2023/02/26 02:08:45;;;;;;;4.25;1.10;;;;;;;;;;6234274;23;20030;-47
2023/02/26 02:11:13;;;;;;;4.50;1.33;;;;;;;;;;6234927;23;20066;-47
2023/02/26 02:13:40;;;;;;;3.03;1.45;;;;;;;;;;6235637;23;20028;-47
2023/02/26 02:16:29;;;;;;;4.88;1.23;;;;;;;;;;6233522;23;20095;-51
2023/02/26 02:19:08;;;;;;;2.85;1.05;;;;;;;;;;6234616;23;20027;-48
2023/02/26 02:21:48;;;;;;;4.07;1.20;;;;;;;;;;6232507;23;20746;-48
2023/02/26 02:24:34;;;;;;;2.97;1.50;;;;;;;;;;6236460;23;20031;-51
2023/02/26 02:27:18;;;;;;;5.57;1.13;;;;;;;;;;6235105;23;20103;-61
2023/02/26 02:29:57;;;;;;;3.45;1.45;;;;;;;;;;6234004;23;20090;-60
2023/02/26 02:32:34;;;;;;;4.05;1.50;;;;;;;;;;6234464;23;20017;-61
2023/02/26 02:35:13;;;;;;;3.95;1.25;;;;;;;;;;6234965;23;20024;-61
2023/02/26 02:38:01;;;;;;;1.98;1.25;;;;;;;;;;6234870;23;20099;-75
2023/02/26 02:40:38;;;;;;;7.47;1.00;;;;;;;;;;6234691;23;20119;-56
2023/02/26 02:43:12;;;;;;;2.60;1.20;;;;;;;;;;6237974;23;20406;-54
2023/02/26 02:45:59;;;;;;;3.88;1.38;;;;;;;;;;6236299;23;20103;-56
2023/02/26 02:48:45;;;;;;;5.05;1.35;;;;;;;;;;6224706;23;20020;-53
2023/02/26 02:51:21;;;;;;;6.15;1.13;;;;;;;;;;6237030;23;20107;-51
2023/02/26 02:53:58;;;;;;;5.70;1.50;;;;;;;;;;6236759;23;20087;-54
2023/02/26 02:56:31;;;;;;;3.47;1.90;;;;;;;;;;6236833;23;20132;-51
2023/02/26 02:59:25;;;;;;;4.30;1.00;;;;;;;;;;6236105;23;20545;-50
2023/02/26 03:02:21;;;;;;;5.40;1.30;;;;;;;;;;6235037;23;20099;-55
2023/02/26 03:04:56;;;;;;;2.17;1.23;;;;;;;;;;6158978;23;20247;-53
2023/02/26 03:07:23;;;;;;;6.38;1.25;;;;;;;;;;6236667;23;20054;-53
2023/02/26 03:09:57;;;;;;;2.88;1.20;;;;;;;;;;6235277;23;20441;-50
2023/02/26 03:12:25;;;;;;;0.88;0.80;;;;;;;;;;6236057;23;20030;-54
2023/02/26 03:14:52;;;;;;;3.92;1.02;;;;;;;;;;6235559;23;20499;-51
2023/02/26 03:17:26;;;;;;;5.15;0.95;;;;;;;;;;6235620;23;20024;-53
2023/02/26 03:20:08;;;;;;;2.70;1.10;;;;;;;;;;6236437;23;20020;-55
2023/02/26 03:22:48;;;;;;;3.72;1.38;;;;;;;;;;6237061;23;20107;-53
2023/02/26 03:25:24;;;;;;;2.22;1.00;;;;;;;;;;6235907;23;20016;-51
2023/02/26 03:27:57;;;;;;;4.43;0.73;;;;;;;;;;6236315;23;20032;-51
2023/02/26 03:30:43;;;;;;;2.20;1.10;;;;;;;;;;6235990;23;20024;-53
2023/02/26 03:33:16;;;;;;;3.47;1.00;;;;;;;;;;6237823;23;20020;-55
2023/02/26 03:35:51;;;;;;;4.15;1.10;;;;;;;;;;6232498;23;20123;-51
2023/02/26 03:38:52;;;;;;;5.25;1.10;;;;;;;;;;6236212;23;20047;-51
2023/02/26 03:41:39;;;;;;;3.50;1.00;;;;;;;;;;6236194;23;20023;-47
2023/02/26 03:44:19;;;;;;;3.50;1.20;;;;;;;;;;6235977;23;20027;-47
2023/02/26 03:46:50;;;;;;;3.70;1.08;;;;;;;;;;6235136;23;20030;-48
2023/02/26 03:49:27;;;;;;;3.60;1.08;;;;;;;;;;6236134;23;20032;-50
2023/02/26 03:51:54;;;;;;;4.18;1.30;;;;;;;;;;6236593;23;20107;-55
2023/02/26 03:54:31;;;;;;;3.63;1.13;;;;;;;;;;6234687;23;20024;-52
2023/02/26 03:56:58;;;;;;;4.60;1.10;;;;;;;;;;6235209;23;20134;-53
2023/02/26 03:59:33;;;;;;;3.55;1.00;;;;;;;;;;6235962;23;20028;-55
2023/02/26 04:02:03;;;;;;;3.53;1.02;;;;;;;;;;6236324;23;20020;-60
2023/02/26 04:04:44;;;;;;;1.60;0.80;;;;;;;;;;6235770;23;20055;-75
2023/02/26 04:07:12;;;;;;;3.83;1.00;;;;;;;;;;6236790;23;20031;-75
2023/02/26 04:09:46;;;;;;;3.97;1.00;;;;;;;;;;6235270;23;20103;-76
2023/02/26 04:12:14;;;;;;;4.90;1.00;;;;;;;;;;6235064;23;20525;-76
2023/02/26 04:14:41;;;;;;;;;;;;;;;;;;6234759;23;20028;-76
2023/02/26 04:17:14;;;;;;;5.97;1.38;;;;;;;;;;6235371;23;20283;-75
2023/02/26 04:19:43;;;;;;;5.28;0.95;;;;;;;;;;6235273;23;20028;-53
2023/02/26 04:22:16;;;;;;;2.45;1.17;;;;;;;;;;6234153;23;20394;-49
2023/02/26 04:24:43;;;;;;;4.88;0.98;;;;;;;;;;6233428;23;20058;-53
2023/02/26 04:27:10;;;;;;;3.25;1.45;;;;;;;;;;6234595;23;20649;-49
2023/02/26 04:29:44;;;;;;;3.05;1.45;;;;;;;;;;6236229;23;20022;-64
2023/02/26 04:32:11;;;;;;;4.50;1.40;;;;;;;;;;6235174;23;20431;-49
2023/02/26 04:34:45;;;;;;;6.13;1.20;;;;;;;;;;6236972;23;20057;-46
2023/02/26 04:37:19;;;;;;;3.97;1.33;;;;;;;;;;6232901;23;20027;-47
2023/02/26 04:39:53;;;;;;;6.95;1.25;;;;;;;;;;6235526;23;20016;-48
2023/02/26 04:42:27;;;;;;;4.15;1.00;;;;;;;;;;6237056;23;20082;-48
2023/02/26 04:45:01;;;;;;;2.22;1.02;;;;;;;;;;6234532;23;20024;-48
2023/02/26 04:47:35;;;;;;;5.45;1.30;;;;;;;;;;6236274;23;20023;-50
2023/02/26 04:50:02;;;;;;;;;;;;;;;;;;6237529;23;20020;-51
2023/02/26 04:52:37;;;;;;;5.18;1.08;;;;;;;;;;6236115;23;20279;-50
2023/02/26 04:55:06;;;;;;;;;;;;;;;;;;6235266;23;20020;-51
2023/02/26 04:57:33;;;;;;;7.60;1.27;;;;;;;;;;6235828;23;19982;-55
2023/02/26 05:00:07;;;;;;;4.65;1.40;;;;;;;;;;6235657;23;20022;-63
2023/02/26 05:02:35;;;;;;;2.88;1.33;;;;;;;;;;6233845;23;20111;-75
2023/02/26 05:05:02;;;;;;;6.10;1.17;;;;;;;;;;6235706;23;20100;-75
2023/02/26 05:07:35;;;;;;;5.18;1.42;;;;;;;;;;6235905;23;20016;-75
2023/02/26 05:10:17;;;;;;;4.65;1.42;;;;;;;;;;6236489;23;20538;-75
2023/02/26 05:12:58;;;;;;;4.00;1.20;;;;;;;;;;6234994;23;20103;-75
2023/02/26 05:15:25;;;;;;;7.60;1.88;;;;;;;;;;6235174;23;20382;-75
2023/02/26 05:17:59;;;;;;;4.85;1.48;;;;;;;;;;6234535;23;20103;-62
2023/02/26 05:20:26;;;;;;;1.85;1.10;;;;;;;;;;6232630;23;20028;-62
2023/02/26 05:22:54;;;;;;;4.45;1.35;;;;;;;;;;6234959;23;20570;-62
2023/02/26 05:25:27;;;;;;;4.57;1.25;;;;;;;;;;6235157;23;20364;-62
2023/02/26 05:27:54;;;;;;;4.60;1.23;;;;;;;;;;6234530;23;20523;-49
2023/02/26 05:30:28;;;;;;;4.43;1.48;;;;;;;;;;6234953;23;20099;-63
2023/02/26 05:32:55;;;;;;;2.90;1.30;;;;;;;;;;6235060;23;20020;-63
2023/02/26 05:35:23;;;;;;;4.55;1.60;;;;;;;;;;6233818;23;20104;-63
2023/02/26 05:38:03;;;;;;;4.18;1.20;;;;;;;;;;6232958;23;20031;-63
2023/02/26 05:40:30;;;;;;;9.88;1.60;;;;;;;;;;6233592;23;20130;-63
2023/02/26 05:43:04;;;;;;;2.72;1.17;;;;;;;;;;6236021;23;20047;-63
2023/02/26 05:45:32;;;;;;;3.38;1.45;;;;;;;;;;6235748;23;20111;-62
2023/02/26 05:47:59;;;;;;;4.55;1.30;;;;;;;;;;6236306;23;20495;-62
2023/02/26 05:50:32;;;;;;;4.88;1.42;;;;;;;;;;6235741;23;20020;-62
2023/02/26 05:52:59;;;;;;;;;;;;;;;;;;6235633;23;20028;-62
2023/02/26 05:55:33;;;;;;;2.88;1.10;;;;;;;;;;6222897;23;20445;-63
2023/02/26 05:58:00;;;;;;;10.70;2.17;;;;;;;;;;6236299;23;20249;-51
2023/02/26 06:00:28;;;;;;;4.57;1.30;;;;;;;;;;6235226;23;20554;-54
2023/02/26 06:03:01;;;;;;;5.15;1.48;;;;;;;;;;6234762;23;20030;-52
2023/02/26 06:05:28;;;;;;;;;;;;;;;;;;6235826;23;20024;-54
2023/02/26 06:08:03;;;;;;;4.78;1.38;;;;;;;;;;6233835;23;19930;-52
2023/02/26 06:10:31;;;;;;;4.13;1.20;;;;;;;;;;6234869;23;20819;-55
2023/02/26 06:12:58;;;;;;;7.68;1.75;;;;;;;;;;6235444;23;20473;-62
2023/02/26 06:15:32;;;;;;;3.67;1.20;;;;;;;;;;6234574;23;20107;-62
2023/02/26 06:17:59;;;;;;;5.95;1.50;;;;;;;;;;6236140;23;20095;-61
2023/02/26 06:20:33;;;;;;;5.43;1.17;;;;;;;;;;6237380;23;20031;-61
2023/02/26 06:23:00;;;;;;;;;;;;;;;;;;6238393;23;20112;-56
2023/02/26 06:25:27;;;;;;;5.55;1.38;;;;;;;;;;6235621;23;19915;-77
2023/02/26 06:28:02;;;;;;;5.85;2.13;;;;;;;;;;6236312;23;20027;-62
2023/02/26 06:30:29;;;;;;;3.45;1.58;;;;;;;;;;6234377;23;20099;-62
2023/02/26 06:33:02;;;;;;;5.22;1.38;;;;;;;;;;6237700;23;20032;-62
2023/02/26 06:35:29;;;;;;;;;;;;;;;;;;6237612;23;20063;-62
2023/02/26 06:37:57;;;;;;;7.53;1.70;;;;;;;;;;6234069;23;19917;-63
2023/02/26 06:40:30;;;;;;;5.90;1.52;;;;;;;;;;6236827;23;20558;-62
2023/02/26 06:42:57;;;;;;;4.55;1.25;;;;;;;;;;6237123;23;20058;-55
2023/02/26 06:45:31;;;;;;;3.50;1.25;;;;;;;;;;6234095;23;20136;-53
2023/02/26 06:47:58;;;;;;;;;;;;;;;;;;6237101;23;20020;-53
2023/02/26 06:50:26;;;;;;;5.68;1.30;;;;;;;;;;6238865;23;19935;-55
2023/02/26 06:52:59;;;;;;;4.55;1.33;;;;;;;;;;6237289;23;20095;-47
2023/02/26 06:55:26;;;;;;;4.55;1.48;;;;;;;;;;6237539;23;20114;-52
2023/02/26 06:58:00;;;;;;;2.97;1.55;;;;;;;;;;6237888;23;20103;-52
2023/02/26 07:00:27;;;;;;;3.53;1.17;;;;;;;;;;6235950;23;20024;-51
2023/02/26 07:03:01;;;;;;;6.45;1.10;;;;;;;;;;6236685;23;20024;-54
2023/02/26 07:05:28;;;;;;;7.90;1.40;;;;;;;;;;6237280;23;20030;-54
2023/02/26 07:07:55;;;;;;;9.25;2.42;;;;;;;;;;6236954;23;20020;-52
2023/02/26 07:10:29;;;;;;;3.33;1.40;;;;;;;;;;6237010;23;20016;-61
2023/02/26 07:12:56;;;;;;;3.78;1.15;;;;;;;;;;6237109;23;20020;-61
2023/02/26 07:15:31;;;;;;;4.85;1.40;;;;;;;;;;6235667;23;20051;-60
2023/02/26 07:17:58;;;;;;;3.92;1.20;;;;;;;;;;6237376;23;20426;-61
2023/02/26 07:20:27;;;;;;;5.95;1.70;;;;;;;;;;6237812;23;20553;-52
2023/02/26 07:23:01;;;;;;;7.03;2.13;;;;;;;;;;6233670;23;20497;-73
2023/02/26 07:25:28;;;;;;;7.13;1.17;;;;;;;;;;6235453;23;20039;-73
2023/02/26 07:27:57;;;;;;;2.83;1.35;;;;;;;;;;6237125;23;20021;-73
2023/02/26 07:30:30;;;;;;;2.13;1.20;;;;;;;;;;6236070;23;20055;-73
2023/02/26 07:32:58;;;;;;;;;;;;;;;;;;6237676;23;20020;-73
2023/02/26 07:35:31;;;;;;;5.60;1.15;;;;;;;;;;6224770;23;19919;-73
2023/02/26 07:38:05;;;;;;;5.03;1.15;;;;;;;;;;6233705;23;20026;-56
2023/02/26 07:40:46;;;;;;;5.22;1.30;;;;;;;;;;6236322;23;20020;-52
2023/02/26 07:43:20;;;;;;;4.07;1.05;;;;;;;;;;6236767;23;20044;-57
2023/02/26 07:45:49;;;;;;;2.72;1.30;;;;;;;;;;6236398;23;20027;-56
2023/02/26 07:48:17;;;;;;;4.32;1.30;;;;;;;;;;6235594;23;20498;-55
2023/02/26 07:50:51;;;;;;;2.80;1.30;;;;;;;;;;6232995;23;20090;-48
2023/02/26 07:53:19;;;;;;;7.43;1.50;;;;;;;;;;6234816;23;20024;-62
2023/02/26 07:55:52;;;;;;;5.03;1.50;;;;;;;;;;6232589;23;20119;-62
2023/02/26 07:58:19;;;;;;;6.63;1.55;;;;;;;;;;6235929;23;20024;-61
2023/02/26 08:00:47;;;;;;;6.43;1.40;;;;;;;;;;6234717;23;20020;-61
2023/02/26 08:03:21;;;;;;;8.93;1.67;;;;;;;;;;6236627;23;20023;-62
2023/02/26 08:05:48;;;;;;;6.50;1.80;;;;;;;;;;6234628;23;20044;-62
2023/02/26 08:08:22;;;;;;;4.35;1.30;;;;;;;;;;6237227;23;20099;-50
2023/02/26 08:10:49;;;;;;;5.80;1.55;;;;;;;;;;6234607;23;20024;-51
2023/02/26 08:13:17;;;;;;;3.88;1.45;;;;;;;;;;6237300;23;20057;-49
2023/02/26 08:15:50;;;;;;;5.82;1.48;;;;;;;;;;6235552;23;20020;-50
2023/02/26 08:18:17;;;;;;;3.50;1.40;;;;;;;;;;6236046;23;20372;-75
2023/02/26 08:20:51;;;;;;;5.45;1.60;;;;;;;;;;6234695;23;20042;-71
2023/02/26 08:23:19;;;;;;;5.00;1.67;;;;;;;;;;6234646;23;20439;-67
2023/02/26 08:25:47;;;;;;;4.60;1.38;;;;;;;;;;6230983;23;20020;-68
2023/02/26 08:28:21;;;;;;;7.80;1.15;;;;;;;;;;6234771;23;20020;-68
2023/02/26 08:30:52;;;;;;;4.57;1.50;;;;;;;;;;6235044;23;20051;-67
2023/02/26 08:33:25;;;;;;;4.20;1.20;;;;;;;;;;6234911;23;20043;-67
2023/02/26 08:36:00;;;;;;;5.78;1.33;;;;;;;;;;6233689;23;20436;-62
2023/02/26 08:38:41;;;;;;;3.15;1.20;;;;;;;;;;6237239;23;20438;-55
2023/02/26 08:41:08;;;;;;;4.88;1.50;;;;;;;;;;6235769;23;20107;-55
2023/02/26 08:43:42;;;;;;;8.00;1.85;;;;;;;;;;6234440;23;20020;-55
2023/02/26 08:46:10;;;;;;;7.65;1.65;;;;;;;;;;6235401;23;20111;-53
2023/02/26 08:48:37;;;;;;;2.50;1.10;;;;;;;;;;6236017;23;20020;-57
2023/02/26 08:51:10;;;;;;;8.63;1.60;;;;;;;;;;6234374;23;20024;-52
2023/02/26 08:53:38;;;;;;;5.28;1.48;;;;;;;;;;6237042;23;20054;-52
2023/02/26 08:56:12;;;;;;;7.25;1.42;;;;;;;;;;6233796;23;20102;-63
2023/02/26 08:58:40;;;;;;;;;;;;;;;;;;6235946;23;20027;-76
2023/02/26 09:01:07;;;;;;;2.95;1.30;;;;;;;;;;6234946;23;19999;-76
2023/02/26 09:03:40;;;;;;;6.30;1.05;;;;;;;;;;6232736;23;20128;-76
2023/02/26 09:06:07;;;;;;;5.10;1.40;;;;;;;;;;6233609;23;20074;-76
2023/02/26 09:08:42;;;;;;;7.40;1.65;;;;;;;;;;6232989;23;20578;-76
2023/02/26 09:11:09;;;;;;;6.18;1.65;;;;;;;;;;6234782;23;20034;-76
2023/02/26 09:13:36;;;;;;;6.75;1.48;;;;;;;;;;6235441;23;20020;-63
2023/02/26 09:16:10;;;;;;;4.88;1.50;;;;;;;;;;6234674;23;20024;-71
2023/02/26 09:18:38;;;;;;;6.15;1.75;;;;;;;;;;6234959;23;20058;-71
2023/02/26 09:21:11;;;;;;;7.78;1.92;;;;;;;;;;6234896;23;20024;-70
2023/02/26 09:23:38;;;;;;;7.75;1.60;;;;;;;;;;6235506;23;20275;-70
2023/02/26 09:26:07;;;;;;;8.40;1.75;;;;;;;;;;6234376;23;20107;-71
2023/02/26 09:28:41;;;;;;;3.58;1.63;;;;;;;;;;6233160;23;20023;-72
2023/02/26 09:31:08;;;;;;;7.45;1.83;;;;;;;;;;6236190;23;20023;-72
2023/02/26 09:33:43;;;;;;;4.25;1.52;;;;;;;;;;6233438;23;20031;-72
2023/02/26 09:36:16;;;;;;;5.10;2.00;;;;;;;;;;6234671;23;20027;-73
2023/02/26 09:38:57;;;;;;;4.72;2.03;;;;;;;;;;6235498;23;20071;-72
2023/02/26 09:41:33;;;;;;;3.88;1.33;;;;;;;;;;6235829;23;20049;-62
2023/02/26 09:44:12;;;;;;;5.30;2.17;;;;;;;;;;6234731;23;20020;-58
2023/02/26 09:46:54;;;;;;;8.55;2.60;;;;;;;;;;6235130;23;20103;-57
2023/02/26 09:49:26;;;;;;;1.98;1.13;;;;;;;;;;6234576;23;20026;-56
2023/02/26 09:52:20;;;;;;;8.77;1.58;;;;;;;;;;6236868;23;20022;-57
2023/02/26 09:54:50;;;;;;;7.72;1.50;;;;;;;;;;6238301;23;20020;-57
2023/02/26 09:57:34;;;;;;;2.15;1.02;;;;;;;;;;6237348;23;20115;-57
2023/02/26 10:00:04;;;;;;;2.83;1.23;;;;;;;;;;6239257;23;20094;-58
2023/02/26 10:02:49;;;;;;;5.72;1.13;;;;;;;;;;6235874;23;20027;-57
2023/02/26 10:05:16;;;;;;;8.13;1.80;;;;;;;;;;6237852;23;20020;-57
2023/02/26 10:07:58;;;;;;;8.07;1.63;;;;;;;;;;6237551;23;20470;-56
2023/02/26 10:10:32;;;;;;;4.20;1.30;;;;;;;;;;6239491;23;20048;-59
2023/02/26 10:13:05;;;;;;;4.95;1.23;;;;;;;;;;6237733;23;20095;-54
2023/02/26 10:15:33;;;;;;;;;;;;;;;;;;6239528;23;20062;-54
2023/02/26 10:18:12;;;;;;;4.63;1.70;;;;;;;;;;6213309;23;19925;-57
2023/02/26 10:20:39;;;;;;;10.68;1.80;;;;;;;;;;6239384;23;20035;-57
2023/02/26 10:23:16;;;;;;;5.80;1.40;;;;;;;;;;6238470;23;20133;-56
2023/02/26 10:25:46;;;;;;;7.43;2.10;;;;;;;;;;6239225;23;20056;-55
2023/02/26 10:28:38;;;;;;;6.32;1.60;;;;;;;;;;6238478;23;20379;-53
2023/02/26 10:31:09;;;;;;;5.00;1.67;;;;;;;;;;6237051;23;20021;-73
2023/02/26 10:33:49;;;;;;;6.85;1.38;;;;;;;;;;6237877;23;20555;-73
2023/02/26 10:36:31;;;;;;;7.13;1.83;;;;;;;;;;6235934;23;20027;-74
2023/02/26 10:39:29;;;;;;;9.30;2.25;;;;;;;;;;6239974;23;20091;-74
2023/02/26 10:41:59;;;;;;;10.57;2.17;;;;;;;;;;6237712;23;20454;-74
2023/02/26 10:44:46;;;;;;;4.80;1.33;;;;;;;;;;6239326;23;20024;-75
2023/02/26 10:47:19;;;;;;;4.70;1.70;;;;;;;;;;6237159;23;20515;-54
2023/02/26 10:49:56;;;;;;;7.20;1.92;;;;;;;;;;6238524;23;20028;-53
2023/02/26 10:52:31;;;;;;;12.02;1.80;;;;;;;;;;6238367;23;20386;-56
2023/02/26 10:55:11;;;;;;;11.73;1.70;;;;;;;;;;6237759;23;20030;-55
2023/02/26 10:57:59;;;;;;;6.28;1.50;;;;;;;;;;6233535;23;20034;-73
2023/02/26 11:00:36;;;;;;;4.13;1.45;;;;;;;;;;6237847;23;20473;-56
2023/02/26 11:03:05;;;;;;;5.72;1.38;;;;;;;;;;6234747;23;20039;-55
2023/02/26 11:05:34;;;;;;;4.80;1.65;;;;;;;;;;6234079;23;20022;-54
2023/02/26 11:08:13;;;;;;;6.50;1.70;;;;;;;;;;6234451;23;20035;-56
2023/02/26 11:10:46;;;;;;;4.35;1.40;;;;;;;;;;6235898;23;20107;-58
2023/02/26 11:13:21;;;;;;;5.13;1.45;;;;;;;;;;6234309;23;20132;-56
2023/02/26 11:15:50;;;;;;;11.00;2.15;;;;;;;;;;6230289;23;20320;-74
2023/02/26 11:18:20;;;;;;;6.82;1.20;;;;;;;;;;6233596;23;20032;-61
2023/02/26 11:20:56;;;;;;;4.80;1.30;;;;;;;;;;6235853;23;20024;-61
2023/02/26 11:23:25;;;;;;;3.75;1.33;;;;;;;;;;6233555;23;20392;-60
2023/02/26 11:26:07;;;;;;;5.75;1.42;;;;;;;;;;6232948;23;20020;-60
2023/02/26 11:28:43;;;;;;;9.15;1.63;;;;;;;;;;6235759;23;20027;-59
2023/02/26 11:31:11;;;;;;;12.50;1.63;;;;;;;;;;6234058;23;20026;-60
2023/02/26 11:33:49;;;;;;;7.43;1.30;;;;;;;;;;6233687;23;20494;-51
2023/02/26 11:36:20;;;;;;;12.82;2.15;;;;;;;;;;6234164;23;20333;-52
2023/02/26 11:39:03;;;;;;;9.48;1.67;;;;;;;;;;6237485;23;20090;-48
2023/02/26 11:41:34;;;;;;;5.43;1.73;;;;;;;;;;6233255;23;20020;-49
2023/02/26 11:44:08;;;;;;;;;;;;;;;;;;6235043;23;20106;-50
2023/02/26 11:46:40;;;;;;;6.43;1.60;;;;;;;;;;6233077;23;19965;-48
2023/02/26 11:49:09;;;;;;;3.95;1.40;;;;;;;;;;6235554;23;20684;-51
2023/02/26 11:51:45;;;;;;;10.23;2.35;;;;;;;;;;6232765;23;20024;-61
2023/02/26 11:54:23;;;;;;;7.03;1.67;;;;;;;;;;6233644;23;20024;-72
2023/02/26 11:57:01;;;;;;;9.93;1.85;;;;;;;;;;6234890;23;20543;-71
2023/02/26 11:59:30;;;;;;;6.28;1.70;;;;;;;;;;6235579;23;20403;-72
2023/02/26 12:02:11;;;;;;;5.05;1.52;;;;;;;;;;6232134;23;20314;-71
2023/02/26 12:04:45;;;;;;;6.68;1.85;;;;;;;;;;6234078;23;20435;-72
2023/02/26 12:07:14;;;;;;;4.88;1.75;;;;;;;;;;6233750;23;20024;-74
2023/02/26 12:09:47;;;;;;;5.70;1.65;;;;;;;;;;6235600;23;20031;-58
2023/02/26 12:12:14;;;;;;;;;;;;;;;;;;6234978;23;20024;-60
2023/02/26 12:14:42;;;;;;;4.97;1.40;;;;;;;;;;6234968;23;20350;-60
2023/02/26 12:17:25;;;;;;;7.38;1.67;;;;;;;;;;6232542;23;20078;-60
2023/02/26 12:20:18;;;;;;;7.40;1.60;;;;;;;;;;6235411;23;20031;-60
2023/02/26 12:22:55;;;;;;;5.38;1.70;;;;;;;;;;6231674;23;20513;-60
2023/02/26 12:25:25;;;;;;;6.88;1.90;;;;;;;;;;6228511;23;20103;-60
2023/02/26 12:28:20;;;;;;;10.17;1.90;;;;;;;;;;6235383;23;20055;-60
2023/02/26 12:30:59;;;;;;;5.80;2.03;;;;;;;;;;6233297;23;20511;-60
2023/02/26 12:33:47;;;;;;;6.45;2.08;;;;;;;;;;6230647;23;20071;-61
2023/02/26 12:36:27;;;;;;;9.82;2.15;;;;;;;;;;6232315;23;20020;-61
2023/02/26 12:39:27;;;;;;;8.32;2.25;;;;;;;;;;6233625;23;20060;-60
2023/02/26 12:42:00;;;;;;;7.07;1.90;;;;;;;;;;6231359;23;20028;-60
2023/02/26 12:44:43;;;;;;;5.45;1.70;;;;;;;;;;6229923;23;20509;-60
2023/02/26 12:47:19;;;;;;;8.95;1.90;;;;;;;;;;6229996;23;20028;-71
2023/02/26 12:50:16;;;;;;;4.78;1.63;;;;;;;;;;6225627;23;20058;-48
2023/02/26 12:52:59;;;;;;;7.90;1.70;;;;;;;;;;6232194;23;20020;-49
2023/02/26 12:55:36;;;;;;;7.43;2.00;;;;;;;;;;6229860;23;20031;-51
2023/02/26 12:58:13;;;;;;;5.90;1.70;;;;;;;;;;6229687;23;20284;-53
2023/02/26 13:00:53;;;;;;;6.28;1.75;;;;;;;;;;6231126;23;20027;-49
2023/02/26 13:03:23;;;;;;;6.40;1.80;;;;;;;;;;6229700;23;20534;-54
2023/02/26 13:06:16;;;;;;;6.07;1.40;;;;;;;;;;6231572;23;20032;-65
2023/02/26 13:08:52;;;;;;;9.40;1.60;;;;;;;;;;6230047;23;20105;-62
2023/02/26 13:11:28;;;;;;;6.68;1.40;;;;;;;;;;6231927;23;20028;-62
2023/02/26 13:14:19;;;;;;;4.35;1.52;;;;;;;;;;6230888;23;20103;-62
2023/02/26 13:17:11;;;;;;;5.63;1.60;;;;;;;;;;6220938;23;20031;-62
2023/02/26 13:19:47;;;;;;;7.85;1.50;;;;;;;;;;6233582;23;20500;-62
2023/02/26 13:22:30;;;;;;;7.20;1.38;;;;;;;;;;6232727;23;20020;-62
2023/02/26 13:25:47;;;;;;;4.55;1.48;;;;;;;;;;6232950;23;20043;-60
2023/02/26 13:28:20;;;;;;;8.02;2.17;;;;;;;;;;6142372;23;20109;-65
2023/02/26 13:30:55;;;;;;;7.45;1.92;;;;;;;;;;6141224;23;20021;-65
2023/02/26 13:33:29;;;;;;;6.43;1.90;;;;;;;;;;6197503;23;20033;-65
2023/02/26 13:36:07;;;;;;;8.77;1.80;;;;;;;;;;6236310;23;20020;-65
2023/02/26 13:38:43;;;;;;;4.65;1.73;;;;;;;;;;6232122;23;20545;-66
2023/02/26 13:41:21;;;;;;;7.18;1.77;;;;;;;;;;6235070;23;20140;-63
2023/02/26 13:44:01;;;;;;;9.65;2.28;;;;;;;;;;6231655;23;20039;-73
2023/02/26 13:46:52;;;;;;;5.88;1.65;;;;;;;;;;6229259;23;20474;-61
2023/02/26 13:49:26;;;;;;;5.05;1.63;;;;;;;;;;6230867;23;20432;-61
2023/02/26 13:52:00;;;;;;;5.50;1.80;;;;;;;;;;6232277;23;20028;-59
2023/02/26 13:54:32;;;;;;;7.15;2.50;;;;;;;;;;6232822;23;20065;-57
2023/02/26 13:57:18;;;;;;;7.40;1.60;;;;;;;;;;6235248;23;20055;-58
2023/02/26 14:00:12;;;;;;;10.48;2.25;;;;;;;;;;6234972;23;20047;-70
2023/02/26 14:02:57;;;;;;;7.70;1.85;;;;;;;;;;6221328;23;20099;-58
2023/02/26 14:05:45;;;;;;;6.30;1.70;;;;;;;;;;6234949;23;20066;-59
2023/02/26 14:08:42;;;;;;;7.05;1.85;;;;;;;;;;6234382;23;20107;-58
2023/02/26 14:11:27;;;;;;;3.05;1.23;;;;;;;;;;6232948;23;20507;-58
2023/02/26 14:14:10;;;;;;;5.78;2.03;;;;;;;;;;6230018;23;20107;-58
2023/02/26 14:16:43;;;;;;;5.82;1.80;;;;;;;;;;6231016;23;20054;-59
2023/02/26 14:19:23;;;;;;;7.88;1.58;;;;;;;;;;6234977;23;20021;-60
2023/02/26 14:22:01;;;;;;;6.68;1.55;;;;;;;;;;6234965;23;20183;-63
2023/02/26 14:24:36;;;;;;;5.15;1.40;;;;;;;;;;6233535;23;20130;-63
2023/02/26 14:27:07;;;;;;;6.55;1.52;;;;;;;;;;6233403;23;20016;-62
2023/02/26 14:29:59;;;;;;;4.30;1.40;;;;;;;;;;6232399;23;20506;-63
2023/02/26 14:32:29;;;;;;;3.33;1.50;;;;;;;;;;6234191;23;20020;-62
2023/02/26 14:35:11;;;;;;;6.90;1.55;;;;;;;;;;6235915;23;20028;-63
2023/02/26 14:37:41;;;;;;;5.43;1.65;;;;;;;;;;6231822;23;20530;-52
2023/02/26 14:40:26;;;;;;;5.50;1.50;;;;;;;;;;6237168;23;20491;-61
2023/02/26 14:42:58;;;;;;;9.02;1.58;;;;;;;;;;6234114;23;20564;-61
2023/02/26 14:45:39;;;;;;;7.53;1.58;;;;;;;;;;6236848;23;20104;-61
2023/02/26 14:48:19;;;;;;;7.60;1.60;;;;;;;;;;6236645;23;20074;-61
2023/02/26 14:51:02;;;;;;;3.60;1.30;;;;;;;;;;6237646;23;20410;-61
2023/02/26 14:53:35;;;;;;;12.15;1.45;;;;;;;;;;6235612;23;20059;-61
2023/02/26 14:56:28;;;;;;;5.80;1.27;;;;;;;;;;6235147;23;20052;-59
2023/02/26 14:59:07;;;;;;;5.97;1.58;;;;;;;;;;6235114;23;20030;-60
2023/02/26 15:01:56;;;;;;;2.95;1.20;;;;;;;;;;6234991;23;20394;-60
2023/02/26 15:04:23;;;;;;;5.50;1.48;;;;;;;;;;6233984;23;20031;-61
2023/02/26 15:07:09;;;;;;;4.38;1.40;;;;;;;;;;6232768;23;20495;-60
2023/02/26 15:09:36;;;;;;;6.03;1.77;;;;;;;;;;6237560;23;20020;-60
2023/02/26 15:12:29;;;;;;;6.60;1.58;;;;;;;;;;6234121;23;20024;-60
2023/02/26 15:15:04;;;;;;;3.17;1.40;;;;;;;;;;6233462;23;20026;-58
2023/02/26 15:17:43;;;;;;;4.72;1.45;;;;;;;;;;6234764;23;20020;-61
2023/02/26 15:20:19;;;;;;;8.85;2.45;;;;;;;;;;6236553;23;20016;-60
2023/02/26 15:23:12;;;;;;;6.35;1.27;;;;;;;;;;6234631;23;20020;-60
2023/02/26 15:25:41;;;;;;;7.70;1.63;;;;;;;;;;6236403;23;20046;-61
2023/02/26 15:28:19;;;;;;;3.25;1.45;;;;;;;;;;6236657;23;20031;-60
2023/02/26 15:30:48;;;;;;;5.55;1.23;;;;;;;;;;6236112;23;20031;-61
2023/02/26 15:33:23;;;;;;;3.85;1.55;;;;;;;;;;6236142;23;20031;-56